Star Lygra — V7FA7 — position and weather

sailwx.info

Track history (hours):
 
Tides and Currents Weather Stations Pressure Air Temp Water Temp Dewpoint Dewpoint Depression Visibility Wind Speed Wind Dir Waves Ship Positions

Star Lygra

Last reported at 2018-Feb-20 17:49 UTC. Time now 2018-Feb-25 20:11 UTC.
Position N 35°58' W 005°35'.

Length 204 m; draft 7.5 m.

Type: Cargo ship. MMSI: 538005562.

Date/timePositionNaut miles runAvg speedWind from/ knotsBaromVisibWave heightAir tempDewpointWater temp
2018-Feb-20 17:49N 35°58' W 005°35'411.4
2018-Feb-20 17:30N 35°59' W 005°30'510.8
2018-Feb-20 17:00N 36°01' W 005°24'510.5
2018-Feb-20 16:30N 36°06' W 005°22'1 1.3
2018-Feb-20 15:59N 36°07' W 005°22'0 0.2
2018-Feb-20 15:29N 36°07' W 005°22'0 0.1
2018-Feb-20 14:59N 36°07' W 005°22'0 0.0
2018-Feb-20 14:29N 36°07' W 005°22'0 0.1
2018-Feb-20 13:59N 36°07' W 005°22'0 0.0
2018-Feb-20 13:14N 36°07' W 005°22'0 0.1
2018-Feb-20 12:59N 36°07' W 005°22'0 0.1
2018-Feb-20 12:26N 36°07' W 005°22'0 0.1
2018-Feb-20 11:47N 36°07' W 005°22'0 0.2
2018-Feb-20 10:17N 36°07' W 005°22'0 0.0
2018-Feb-20 09:59N 36°07' W 005°22'0 0.0
2018-Feb-20 09:23N 36°07' W 005°22'0 0.1
2018-Feb-20 08:56N 36°07' W 005°22'0 0.0
2018-Feb-20 08:29N 36°07' W 005°22'0 0.0
2018-Feb-20 07:59N 36°07' W 005°22'0 0.0
2018-Feb-20 07:29N 36°07' W 005°22'0 0.0
2018-Feb-20 06:59N 36°07' W 005°22'0 0.0
2018-Feb-20 06:29N 36°07' W 005°22'0 0.0
2018-Feb-20 05:59N 36°07' W 005°22'0 0.0
2018-Feb-20 05:29N 36°07' W 005°22'0 0.0
2018-Feb-20 04:59N 36°07' W 005°22'0 0.1
2018-Feb-20 04:29N 36°07' W 005°22'0 0.0
2018-Feb-20 03:59N 36°07' W 005°22'0 0.2
2018-Feb-20 03:29N 36°07' W 005°22'0 0.0
2018-Feb-20 02:59N 36°07' W 005°22'0 0.0
2018-Feb-20 02:29N 36°07' W 005°22'0 0.0
2018-Feb-20 01:59N 36°07' W 005°22'0 0.2
2018-Feb-20 01:26N 36°07' W 005°22'0 0.2
2018-Feb-20 00:53N 36°07' W 005°22'0 0.1
2018-Feb-20 00:29N 36°07' W 005°22'0 0.0
2018-Feb-19 23:59N 36°07' W 005°22'0 0.1
2018-Feb-19 23:23N 36°07' W 005°22'0 0.3
2018-Feb-19 22:59N 36°07' W 005°22'0 0.1
2018-Feb-19 21:53N 36°07' W 005°22'0 0.0
2018-Feb-19 21:24N 36°07' W 005°22'1 3.3
2018-Feb-19 21:00N 36°05' W 005°22'3 5.4
2018-Feb-19 20:30N 36°05' W 005°18'3 6.7
2018-Feb-19 19:59N 36°06' W 005°15'1 1.5
2018-Feb-19 19:30N 36°06' W 005°14'1 0.3
2018-Feb-19 13:58N 36°04' W 005°14'  
2018-Feb-16 16:55N 40°31' E 013°47'614.1
2018-Feb-16 16:31N 40°33' E 013°54'713.8
2018-Feb-16 16:00N 40°37' E 014°02'713.7
2018-Feb-16 15:30N 40°41' E 014°09'713.6
2018-Feb-16 14:59N 40°45' E 014°17'510.0
2018-Feb-16 14:29N 40°50' E 014°16'0 0.0
2018-Feb-15 11:32N 40°51' E 014°17'0 0.6
2018-Feb-15 11:29N 40°50' E 014°17'4 4.0
2018-Feb-15 10:36N 40°47' E 014°17'2 6.9
2018-Feb-15 10:19N 40°45' E 014°18'3 9.6
2018-Feb-15 10:00N 40°43' E 014°15'510.1
2018-Feb-15 09:30N 40°40' E 014°09'815.2
2018-Feb-15 09:00N 40°36' E 014°01'815.6
2018-Feb-15 08:30N 40°36' E 013°51'815.2
2018-Feb-15 07:57N 40°36' E 013°40'22513.7
2018-Feb-14 15:36N 43°14' E 010°04'216.3
2018-Feb-14 15:30N 43°15' E 010°05'816.3
2018-Feb-14 15:01N 43°23' E 010°07'714.7
2018-Feb-14 14:30N 43°30' E 010°11'510.7
2018-Feb-14 14:01N 43°32' E 010°17'1 1.6
2018-Feb-14 13:22N 43°33' E 010°18'0 0.0
2018-Feb-14 09:31N 43°33' E 010°18'0 0.0
2018-Feb-14 09:28N 43°33' E 010°18'0 0.0
2018-Feb-14 08:58N 43°33' E 010°18'0 0.0
2018-Feb-14 08:28N 43°33' E 010°18'0 0.0
2018-Feb-14 07:58N 43°33' E 010°18'0 0.0
2018-Feb-14 07:28N 43°33' E 010°18'0 0.0
2018-Feb-14 06:58N 43°33' E 010°18'0 0.0
2018-Feb-14 06:25N 43°33' E 010°18'0 0.0
2018-Feb-14 05:58N 43°33' E 010°18'0 0.0
2018-Feb-14 05:28N 43°33' E 010°18'0 0.0
2018-Feb-14 04:58N 43°33' E 010°18'0 0.0
2018-Feb-14 04:28N 43°33' E 010°18'0 0.0
2018-Feb-14 03:58N 43°33' E 010°18'0 0.0
2018-Feb-14 03:28N 43°33' E 010°18'0 0.0
2018-Feb-14 02:58N 43°33' E 010°18'0 0.0
2018-Feb-14 02:28N 43°33' E 010°18'0 0.0
2018-Feb-14 01:58N 43°33' E 010°18'0 0.0
2018-Feb-14 01:28N 43°33' E 010°18'0 0.0
2018-Feb-14 00:58N 43°33' E 010°18'0 0.0
2018-Feb-14 00:28N 43°33' E 010°18'0 0.0
2018-Feb-13 23:58N 43°33' E 010°18'0 0.0
2018-Feb-13 23:28N 43°33' E 010°18'0 0.0
2018-Feb-13 22:58N 43°33' E 010°18'0 0.0
2018-Feb-13 22:25N 43°33' E 010°18'0 0.0
2018-Feb-13 21:58N 43°33' E 010°18'0 0.0
2018-Feb-13 21:28N 43°33' E 010°18'0 0.0
2018-Feb-13 20:58N 43°33' E 010°18'0 0.0
2018-Feb-13 20:28N 43°33' E 010°18'0 0.0
2018-Feb-13 19:58N 43°33' E 010°18'0 0.0
2018-Feb-13 19:25N 43°33' E 010°18'0 0.0
2018-Feb-13 18:58N 43°33' E 010°18'0 0.0
2018-Feb-13 18:28N 43°33' E 010°18'0 0.0
2018-Feb-13 17:58N 43°33' E 010°18'0 0.0
2018-Feb-13 17:25N 43°33' E 010°18'0 0.0
2018-Feb-13 16:58N 43°33' E 010°18'0 0.0
2018-Feb-13 16:25N 43°33' E 010°18'0 0.0
2018-Feb-13 15:58N 43°33' E 010°18'0 0.0
2018-Feb-13 15:28N 43°33' E 010°18'0 0.0
2018-Feb-13 14:49N 43°33' E 010°18'0 0.0
2018-Feb-13 14:28N 43°33' E 010°18'0 0.0
2018-Feb-13 13:58N 43°33' E 010°18'0 0.0
2018-Feb-13 13:28N 43°33' E 010°18'0 0.0
2018-Feb-13 12:58N 43°33' E 010°18'0 0.0
2018-Feb-13 12:28N 43°33' E 010°18'0 0.0
2018-Feb-13 11:58N 43°33' E 010°18'0 0.0
2018-Feb-13 11:22N 43°33' E 010°18'0 0.0
2018-Feb-13 10:58N 43°33' E 010°18'0 0.0
2018-Feb-13 10:28N 43°33' E 010°18'0 0.0
2018-Feb-13 09:58N 43°33' E 010°18'0 0.0
2018-Feb-13 09:25N 43°33' E 010°18'0 0.0
2018-Feb-13 08:58N 43°33' E 010°18'0 0.0
2018-Feb-13 08:28N 43°33' E 010°18'0 0.0
2018-Feb-13 07:58N 43°33' E 010°18'0 0.0
2018-Feb-13 07:28N 43°33' E 010°18'0 0.0
2018-Feb-13 06:58N 43°33' E 010°18'0 0.0
2018-Feb-13 06:28N 43°33' E 010°18'0 0.0
2018-Feb-13 05:58N 43°33' E 010°18'0 0.0
2018-Feb-13 05:28N 43°33' E 010°18'0 0.0
2018-Feb-13 04:58N 43°33' E 010°18'0 0.0
2018-Feb-13 04:28N 43°33' E 010°18'0 0.0
2018-Feb-13 03:58N 43°33' E 010°18'0 0.0
2018-Feb-13 03:28N 43°33' E 010°18'0 0.0
2018-Feb-13 02:58N 43°33' E 010°18'0 0.0
2018-Feb-13 02:28N 43°33' E 010°18'0 0.0
2018-Feb-13 01:58N 43°33' E 010°18'0 0.0
2018-Feb-13 01:28N 43°33' E 010°18'0 0.0
2018-Feb-13 00:55N 43°33' E 010°18'0 0.0
2018-Feb-13 00:19N 43°33' E 010°18'0 0.0
2018-Feb-12 23:58N 43°33' E 010°18'0 0.0
2018-Feb-12 23:28N 43°33' E 010°18'0 0.0
2018-Feb-12 22:55N 43°33' E 010°18'0 0.0
2018-Feb-12 22:28N 43°33' E 010°18'0 0.0
2018-Feb-12 21:58N 43°33' E 010°18'0 0.0
2018-Feb-12 21:28N 43°33' E 010°18'0 0.0
2018-Feb-12 20:58N 43°33' E 010°18'0 0.0
2018-Feb-12 20:28N 43°33' E 010°18'0 0.0
2018-Feb-12 19:58N 43°33' E 010°18'0 0.0
2018-Feb-12 19:28N 43°33' E 010°18'0 0.0
2018-Feb-12 18:58N 43°33' E 010°18'0 0.0
2018-Feb-12 18:28N 43°33' E 010°18'0 0.0
2018-Feb-12 17:58N 43°33' E 010°18'0 0.0
2018-Feb-12 17:28N 43°33' E 010°18'0 0.0
2018-Feb-12 16:58N 43°33' E 010°18'0 0.0
2018-Feb-12 16:28N 43°33' E 010°18'0 0.0
2018-Feb-12 15:58N 43°33' E 010°18'0 0.0
2018-Feb-12 15:16N 43°33' E 010°18'0 0.0
2018-Feb-12 14:58N 43°33' E 010°18'0 0.0
2018-Feb-12 14:28N 43°33' E 010°18'0 0.0
2018-Feb-12 13:58N 43°33' E 010°18'0 0.0
2018-Feb-12 13:25N 43°33' E 010°18'0 0.0
2018-Feb-12 12:58N 43°33' E 010°18'0 0.0
2018-Feb-12 12:25N 43°33' E 010°18'0 0.0
2018-Feb-12 11:58N 43°33' E 010°18'0 0.0
2018-Feb-12 11:28N 43°33' E 010°18'0 0.0
2018-Feb-12 10:43N 43°33' E 010°18'0 0.0
2018-Feb-12 10:25N 43°33' E 010°18'0 0.0
2018-Feb-12 09:58N 43°33' E 010°18'0 0.0
2018-Feb-12 09:25N 43°33' E 010°18'0 0.0
2018-Feb-12 08:58N 43°33' E 010°18'0 0.0
2018-Feb-12 08:22N 43°33' E 010°18'0 0.0
2018-Feb-12 07:58N 43°33' E 010°18'0 0.0
2018-Feb-12 07:28N 43°33' E 010°18'0 0.0
2018-Feb-12 06:58N 43°33' E 010°18'0 0.0
2018-Feb-12 06:13N 43°33' E 010°18'0 0.0
2018-Feb-12 06:01N 43°33' E 010°18'2 3.7
2018-Feb-12 05:31N 43°32' E 010°16'1 1.6
2018-Feb-12 05:01N 43°31' E 010°15'2 4.2
2018-Feb-12 04:30N 43°30' E 010°13'3 5.7
2018-Feb-12 04:01N 43°30' E 010°09'3 6.2
2018-Feb-12 03:30N 43°30' E 010°05'3 5.7
2018-Feb-12 03:01N 43°31' E 010°01'3 5.2
2018-Feb-12 02:31N 43°33' E 009°58'3 5.3
2018-Feb-12 02:01N 43°34' E 009°56'3 5.6
2018-Feb-12 01:31N 43°36' E 009°52'3 5.6
2018-Feb-12 01:00N 43°37' E 009°49'4 8.9
2018-Feb-12 00:31N 43°40' E 009°44'713.6
2018-Feb-12 00:01N 43°44' E 009°37'813.8
2018-Feb-11 23:26N 43°49' E 009°28'614.4
2018-Feb-11 23:00N 43°52' E 009°21'714.3
2018-Feb-11 22:30N 43°57' E 009°13'714.4
2018-Feb-11 22:00N 44°00' E 009°04'714.8
2018-Feb-11 21:30N 44°04' E 008°55'815.0
2018-Feb-11 21:00N 44°09' E 008°48'715.0
2018-Feb-11 20:30N 44°14' E 008°40'714.2
2018-Feb-11 20:01N 44°18' E 008°32'2 3.5
2018-Feb-11 19:30N 44°19' E 008°30'0 0.0
2018-Feb-11 19:00N 44°19' E 008°30'0 0.0
2018-Feb-11 18:30N 44°19' E 008°30'0 0.0
2018-Feb-11 17:58N 44°19' E 008°30'0 0.0
2018-Feb-11 17:28N 44°19' E 008°30'0 0.0
2018-Feb-11 16:58N 44°19' E 008°30'0 0.0
2018-Feb-11 16:28N 44°19' E 008°30'0 0.0
2018-Feb-11 15:58N 44°19' E 008°30'0 0.0
2018-Feb-11 15:28N 44°19' E 008°30'0 0.0
2018-Feb-11 14:58N 44°19' E 008°30'0 0.0
2018-Feb-11 14:28N 44°19' E 008°30'0 0.0
2018-Feb-11 13:58N 44°19' E 008°30'0 0.0
2018-Feb-11 13:28N 44°19' E 008°30'0 0.0
2018-Feb-11 12:58N 44°19' E 008°30'0 0.0
2018-Feb-11 12:28N 44°19' E 008°30'0 0.0
2018-Feb-11 11:58N 44°19' E 008°30'0 0.0
2018-Feb-11 11:28N 44°19' E 008°30'0 0.0
2018-Feb-11 10:58N 44°19' E 008°30'0 0.0
2018-Feb-11 10:28N 44°19' E 008°30'0 0.0
2018-Feb-11 09:58N 44°19' E 008°30'0 0.0
2018-Feb-11 09:28N 44°19' E 008°30'0 0.0
2018-Feb-11 08:58N 44°19' E 008°30'0 0.0
2018-Feb-11 08:28N 44°19' E 008°30'0 0.0
2018-Feb-11 07:58N 44°19' E 008°30'0 0.0
2018-Feb-11 07:28N 44°19' E 008°30'0 0.0
2018-Feb-11 06:46N 44°19' E 008°30'0 0.0
2018-Feb-11 06:28N 44°19' E 008°30'0 0.0
2018-Feb-11 05:58N 44°19' E 008°30'0 0.0
2018-Feb-11 05:28N 44°19' E 008°30'0 0.1
2018-Feb-11 04:59N 44°19' E 008°30'2 3.4
2018-Feb-11 04:30N 44°18' E 008°32'3 7.0
2018-Feb-11 04:00N 44°15' E 008°32'5 9.2
2018-Feb-11 03:30N 44°10' E 008°32'611.8
2018-Feb-11 03:00N 44°05' E 008°28'4 8.0
2018-Feb-11 02:30N 44°02' E 008°25'813.6
2018-Feb-11 01:55N 43°55' E 008°18'3513.7
2018-Feb-10 23:22N 43°29' E 007°47'614.3
2018-Feb-10 22:59N 43°25' E 007°41'814.4
2018-Feb-10 22:24N 43°20' E 007°32'614.4
2018-Feb-10 21:58N 43°16' E 007°25'814.5
2018-Feb-10 21:23N 43°10' E 007°17'514.0
2018-Feb-10 21:00N 43°07' E 007°12'714.5
2018-Feb-10 20:30N 43°02' E 007°04'  
Track history (hours):
 
Tides and Currents Weather Stations Pressure Air Temp Water Temp Dewpoint Dewpoint Depression Visibility Wind Speed Wind Dir Waves Ship Positions

Star Lygra

Last reported at 2018-Feb-20 17:49 UTC. Time now 2018-Feb-25 20:11 UTC.
Position N 35°58' W 005°35'.

Length 204 m; draft 7.5 m.

Type: Cargo ship. MMSI: 538005562.

Date/timePositionNaut miles runAvg speedWind from/ knotsBaromVisibWave heightAir tempDewpointWater temp
2018-Feb-20 17:49N 35°58' W 005°35'411.4
2018-Feb-20 17:30N 35°59' W 005°30'510.8
2018-Feb-20 17:00N 36°01' W 005°24'510.5
2018-Feb-20 16:30N 36°06' W 005°22'1 1.3
2018-Feb-20 15:59N 36°07' W 005°22'0 0.2
2018-Feb-20 15:29N 36°07' W 005°22'0 0.1
2018-Feb-20 14:59N 36°07' W 005°22'0 0.0
2018-Feb-20 14:29N 36°07' W 005°22'0 0.1
2018-Feb-20 13:59N 36°07' W 005°22'0 0.0
2018-Feb-20 13:14N 36°07' W 005°22'0 0.1
2018-Feb-20 12:59N 36°07' W 005°22'0 0.1
2018-Feb-20 12:26N 36°07' W 005°22'0 0.1
2018-Feb-20 11:47N 36°07' W 005°22'0 0.2
2018-Feb-20 10:17N 36°07' W 005°22'0 0.0
2018-Feb-20 09:59N 36°07' W 005°22'0 0.0
2018-Feb-20 09:23N 36°07' W 005°22'0 0.1
2018-Feb-20 08:56N 36°07' W 005°22'0 0.0
2018-Feb-20 08:29N 36°07' W 005°22'0 0.0
2018-Feb-20 07:59N 36°07' W 005°22'0 0.0
2018-Feb-20 07:29N 36°07' W 005°22'0 0.0
2018-Feb-20 06:59N 36°07' W 005°22'0 0.0
2018-Feb-20 06:29N 36°07' W 005°22'0 0.0
2018-Feb-20 05:59N 36°07' W 005°22'0 0.0
2018-Feb-20 05:29N 36°07' W 005°22'0 0.0
2018-Feb-20 04:59N 36°07' W 005°22'0 0.1
2018-Feb-20 04:29N 36°07' W 005°22'0 0.0
2018-Feb-20 03:59N 36°07' W 005°22'0 0.2
2018-Feb-20 03:29N 36°07' W 005°22'0 0.0
2018-Feb-20 02:59N 36°07' W 005°22'0 0.0
2018-Feb-20 02:29N 36°07' W 005°22'0 0.0
2018-Feb-20 01:59N 36°07' W 005°22'0 0.2
2018-Feb-20 01:26N 36°07' W 005°22'0 0.2
2018-Feb-20 00:53N 36°07' W 005°22'0 0.1
2018-Feb-20 00:29N 36°07' W 005°22'0 0.0
2018-Feb-19 23:59N 36°07' W 005°22'0 0.1
2018-Feb-19 23:23N 36°07' W 005°22'0 0.3
2018-Feb-19 22:59N 36°07' W 005°22'0 0.1
2018-Feb-19 21:53N 36°07' W 005°22'0 0.0
2018-Feb-19 21:24N 36°07' W 005°22'1 3.3
2018-Feb-19 21:00N 36°05' W 005°22'3 5.4
2018-Feb-19 20:30N 36°05' W 005°18'3 6.7
2018-Feb-19 19:59N 36°06' W 005°15'1 1.5
2018-Feb-19 19:30N 36°06' W 005°14'1 0.3
2018-Feb-19 13:58N 36°04' W 005°14'  
2018-Feb-16 16:55N 40°31' E 013°47'614.1
2018-Feb-16 16:31N 40°33' E 013°54'713.8
2018-Feb-16 16:00N 40°37' E 014°02'713.7
2018-Feb-16 15:30N 40°41' E 014°09'713.6
2018-Feb-16 14:59N 40°45' E 014°17'510.0
2018-Feb-16 14:29N 40°50' E 014°16'0 0.0
2018-Feb-15 11:32N 40°51' E 014°17'0 0.6
2018-Feb-15 11:29N 40°50' E 014°17'4 4.0
2018-Feb-15 10:36N 40°47' E 014°17'2 6.9
2018-Feb-15 10:19N 40°45' E 014°18'3 9.6
2018-Feb-15 10:00N 40°43' E 014°15'510.1
2018-Feb-15 09:30N 40°40' E 014°09'815.2
2018-Feb-15 09:00N 40°36' E 014°01'815.6
2018-Feb-15 08:30N 40°36' E 013°51'815.2
2018-Feb-15 07:57N 40°36' E 013°40'22513.7
2018-Feb-14 15:36N 43°14' E 010°04'216.3
2018-Feb-14 15:30N 43°15' E 010°05'816.3
2018-Feb-14 15:01N 43°23' E 010°07'714.7
2018-Feb-14 14:30N 43°30' E 010°11'510.7
2018-Feb-14 14:01N 43°32' E 010°17'1 1.6
2018-Feb-14 13:22N 43°33' E 010°18'0 0.0
2018-Feb-14 09:31N 43°33' E 010°18'0 0.0
2018-Feb-14 09:28N 43°33' E 010°18'0 0.0
2018-Feb-14 08:58N 43°33' E 010°18'0 0.0
2018-Feb-14 08:28N 43°33' E 010°18'0 0.0
2018-Feb-14 07:58N 43°33' E 010°18'0 0.0
2018-Feb-14 07:28N 43°33' E 010°18'0 0.0
2018-Feb-14 06:58N 43°33' E 010°18'0 0.0
2018-Feb-14 06:25N 43°33' E 010°18'0 0.0
2018-Feb-14 05:58N 43°33' E 010°18'0 0.0
2018-Feb-14 05:28N 43°33' E 010°18'0 0.0
2018-Feb-14 04:58N 43°33' E 010°18'0 0.0
2018-Feb-14 04:28N 43°33' E 010°18'0 0.0
2018-Feb-14 03:58N 43°33' E 010°18'0 0.0
2018-Feb-14 03:28N 43°33' E 010°18'0 0.0
2018-Feb-14 02:58N 43°33' E 010°18'0 0.0
2018-Feb-14 02:28N 43°33' E 010°18'0 0.0
2018-Feb-14 01:58N 43°33' E 010°18'0 0.0
2018-Feb-14 01:28N 43°33' E 010°18'0 0.0
2018-Feb-14 00:58N 43°33' E 010°18'0 0.0
2018-Feb-14 00:28N 43°33' E 010°18'0 0.0
2018-Feb-13 23:58N 43°33' E 010°18'0 0.0
2018-Feb-13 23:28N 43°33' E 010°18'0 0.0
2018-Feb-13 22:58N 43°33' E 010°18'0 0.0
2018-Feb-13 22:25N 43°33' E 010°18'0 0.0
2018-Feb-13 21:58N 43°33' E 010°18'0 0.0
2018-Feb-13 21:28N 43°33' E 010°18'0 0.0
2018-Feb-13 20:58N 43°33' E 010°18'0 0.0
2018-Feb-13 20:28N 43°33' E 010°18'0 0.0
2018-Feb-13 19:58N 43°33' E 010°18'0 0.0
2018-Feb-13 19:25N 43°33' E 010°18'0 0.0
2018-Feb-13 18:58N 43°33' E 010°18'0 0.0
2018-Feb-13 18:28N 43°33' E 010°18'0 0.0
2018-Feb-13 17:58N 43°33' E 010°18'0 0.0
2018-Feb-13 17:25N 43°33' E 010°18'0 0.0
2018-Feb-13 16:58N 43°33' E 010°18'0 0.0
2018-Feb-13 16:25N 43°33' E 010°18'0 0.0
2018-Feb-13 15:58N 43°33' E 010°18'0 0.0
2018-Feb-13 15:28N 43°33' E 010°18'0 0.0
2018-Feb-13 14:49N 43°33' E 010°18'0 0.0
2018-Feb-13 14:28N 43°33' E 010°18'0 0.0
2018-Feb-13 13:58N 43°33' E 010°18'0 0.0
2018-Feb-13 13:28N 43°33' E 010°18'0 0.0
2018-Feb-13 12:58N 43°33' E 010°18'0 0.0
2018-Feb-13 12:28N 43°33' E 010°18'0 0.0
2018-Feb-13 11:58N 43°33' E 010°18'0 0.0
2018-Feb-13 11:22N 43°33' E 010°18'0 0.0
2018-Feb-13 10:58N 43°33' E 010°18'0 0.0
2018-Feb-13 10:28N 43°33' E 010°18'0 0.0
2018-Feb-13 09:58N 43°33' E 010°18'0 0.0
2018-Feb-13 09:25N 43°33' E 010°18'0 0.0
2018-Feb-13 08:58N 43°33' E 010°18'0 0.0
2018-Feb-13 08:28N 43°33' E 010°18'0 0.0
2018-Feb-13 07:58N 43°33' E 010°18'0 0.0
2018-Feb-13 07:28N 43°33' E 010°18'0 0.0
2018-Feb-13 06:58N 43°33' E 010°18'0 0.0
2018-Feb-13 06:28N 43°33' E 010°18'0 0.0
2018-Feb-13 05:58N 43°33' E 010°18'0 0.0
2018-Feb-13 05:28N 43°33' E 010°18'0 0.0
2018-Feb-13 04:58N 43°33' E 010°18'0 0.0
2018-Feb-13 04:28N 43°33' E 010°18'0 0.0
2018-Feb-13 03:58N 43°33' E 010°18'0 0.0
2018-Feb-13 03:28N 43°33' E 010°18'0 0.0
2018-Feb-13 02:58N 43°33' E 010°18'0 0.0
2018-Feb-13 02:28N 43°33' E 010°18'0 0.0
2018-Feb-13 01:58N 43°33' E 010°18'0 0.0
2018-Feb-13 01:28N 43°33' E 010°18'0 0.0
2018-Feb-13 00:55N 43°33' E 010°18'0 0.0
2018-Feb-13 00:19N 43°33' E 010°18'0 0.0
2018-Feb-12 23:58N 43°33' E 010°18'0 0.0
2018-Feb-12 23:28N 43°33' E 010°18'0 0.0
2018-Feb-12 22:55N 43°33' E 010°18'0 0.0
2018-Feb-12 22:28N 43°33' E 010°18'0 0.0
2018-Feb-12 21:58N 43°33' E 010°18'0 0.0
2018-Feb-12 21:28N 43°33' E 010°18'0 0.0
2018-Feb-12 20:58N 43°33' E 010°18'0 0.0
2018-Feb-12 20:28N 43°33' E 010°18'0 0.0
2018-Feb-12 19:58N 43°33' E 010°18'0 0.0
2018-Feb-12 19:28N 43°33' E 010°18'0 0.0
2018-Feb-12 18:58N 43°33' E 010°18'0 0.0
2018-Feb-12 18:28N 43°33' E 010°18'0 0.0
2018-Feb-12 17:58N 43°33' E 010°18'0 0.0
2018-Feb-12 17:28N 43°33' E 010°18'0 0.0
2018-Feb-12 16:58N 43°33' E 010°18'0 0.0
2018-Feb-12 16:28N 43°33' E 010°18'0 0.0
2018-Feb-12 15:58N 43°33' E 010°18'0 0.0
2018-Feb-12 15:16N 43°33' E 010°18'0 0.0
2018-Feb-12 14:58N 43°33' E 010°18'0 0.0
2018-Feb-12 14:28N 43°33' E 010°18'0 0.0
2018-Feb-12 13:58N 43°33' E 010°18'0 0.0
2018-Feb-12 13:25N 43°33' E 010°18'0 0.0
2018-Feb-12 12:58N 43°33' E 010°18'0 0.0
2018-Feb-12 12:25N 43°33' E 010°18'0 0.0
2018-Feb-12 11:58N 43°33' E 010°18'0 0.0
2018-Feb-12 11:28N 43°33' E 010°18'0 0.0
2018-Feb-12 10:43N 43°33' E 010°18'0 0.0
2018-Feb-12 10:25N 43°33' E 010°18'0 0.0
2018-Feb-12 09:58N 43°33' E 010°18'0 0.0
2018-Feb-12 09:25N 43°33' E 010°18'0 0.0
2018-Feb-12 08:58N 43°33' E 010°18'0 0.0
2018-Feb-12 08:22N 43°33' E 010°18'0 0.0
2018-Feb-12 07:58N 43°33' E 010°18'0 0.0
2018-Feb-12 07:28N 43°33' E 010°18'0 0.0
2018-Feb-12 06:58N 43°33' E 010°18'0 0.0
2018-Feb-12 06:13N 43°33' E 010°18'0 0.0
2018-Feb-12 06:01N 43°33' E 010°18'2 3.7
2018-Feb-12 05:31N 43°32' E 010°16'1 1.6
2018-Feb-12 05:01N 43°31' E 010°15'2 4.2
2018-Feb-12 04:30N 43°30' E 010°13'3 5.7
2018-Feb-12 04:01N 43°30' E 010°09'3 6.2
2018-Feb-12 03:30N 43°30' E 010°05'3 5.7
2018-Feb-12 03:01N 43°31' E 010°01'3 5.2
2018-Feb-12 02:31N 43°33' E 009°58'3 5.3
2018-Feb-12 02:01N 43°34' E 009°56'3 5.6
2018-Feb-12 01:31N 43°36' E 009°52'3 5.6
2018-Feb-12 01:00N 43°37' E 009°49'4 8.9
2018-Feb-12 00:31N 43°40' E 009°44'713.6
2018-Feb-12 00:01N 43°44' E 009°37'813.8
2018-Feb-11 23:26N 43°49' E 009°28'614.4
2018-Feb-11 23:00N 43°52' E 009°21'714.3
2018-Feb-11 22:30N 43°57' E 009°13'714.4
2018-Feb-11 22:00N 44°00' E 009°04'714.8
2018-Feb-11 21:30N 44°04' E 008°55'815.0
2018-Feb-11 21:00N 44°09' E 008°48'715.0
2018-Feb-11 20:30N 44°14' E 008°40'714.2
2018-Feb-11 20:01N 44°18' E 008°32'2 3.5
2018-Feb-11 19:30N 44°19' E 008°30'0 0.0
2018-Feb-11 19:00N 44°19' E 008°30'0 0.0
2018-Feb-11 18:30N 44°19' E 008°30'0 0.0
2018-Feb-11 17:58N 44°19' E 008°30'0 0.0
2018-Feb-11 17:28N 44°19' E 008°30'0 0.0
2018-Feb-11 16:58N 44°19' E 008°30'0 0.0
2018-Feb-11 16:28N 44°19' E 008°30'0 0.0
2018-Feb-11 15:58N 44°19' E 008°30'0 0.0
2018-Feb-11 15:28N 44°19' E 008°30'0 0.0
2018-Feb-11 14:58N 44°19' E 008°30'0 0.0
2018-Feb-11 14:28N 44°19' E 008°30'0 0.0
2018-Feb-11 13:58N 44°19' E 008°30'0 0.0
2018-Feb-11 13:28N 44°19' E 008°30'0 0.0
2018-Feb-11 12:58N 44°19' E 008°30'0 0.0
2018-Feb-11 12:28N 44°19' E 008°30'0 0.0
2018-Feb-11 11:58N 44°19' E 008°30'0 0.0
2018-Feb-11 11:28N 44°19' E 008°30'0 0.0
2018-Feb-11 10:58N 44°19' E 008°30'0 0.0
2018-Feb-11 10:28N 44°19' E 008°30'0 0.0
2018-Feb-11 09:58N 44°19' E 008°30'0 0.0
2018-Feb-11 09:28N 44°19' E 008°30'0 0.0
2018-Feb-11 08:58N 44°19' E 008°30'0 0.0
2018-Feb-11 08:28N 44°19' E 008°30'0 0.0
2018-Feb-11 07:58N 44°19' E 008°30'0 0.0
2018-Feb-11 07:28N 44°19' E 008°30'0 0.0
2018-Feb-11 06:46N 44°19' E 008°30'0 0.0
2018-Feb-11 06:28N 44°19' E 008°30'0 0.0
2018-Feb-11 05:58N 44°19' E 008°30'0 0.0
2018-Feb-11 05:28N 44°19' E 008°30'0 0.1
2018-Feb-11 04:59N 44°19' E 008°30'2 3.4
2018-Feb-11 04:30N 44°18' E 008°32'3 7.0
2018-Feb-11 04:00N 44°15' E 008°32'5 9.2
2018-Feb-11 03:30N 44°10' E 008°32'611.8
2018-Feb-11 03:00N 44°05' E 008°28'4 8.0
2018-Feb-11 02:30N 44°02' E 008°25'813.6
2018-Feb-11 01:55N 43°55' E 008°18'3513.7
2018-Feb-10 23:22N 43°29' E 007°47'614.3
2018-Feb-10 22:59N 43°25' E 007°41'814.4
2018-Feb-10 22:24N 43°20' E 007°32'614.4
2018-Feb-10 21:58N 43°16' E 007°25'814.5
2018-Feb-10 21:23N 43°10' E 007°17'514.0
2018-Feb-10 21:00N 43°07' E 007°12'714.5
2018-Feb-10 20:30N 43°02' E 007°04'  

Dump ship's entire track history